Little York, Ohio
Current Conditions -  °F | °C
As of 10:53 AM on Wednesday 28 Jan 2015 (Local Time) from KMNN Reporting Station
Haze Haze  
Wind Chill: -1°   Ceiling: Unl
Heat Index: 10°   Visibility: 2mi
Dew Point:   Wind: 7mph
Humidity: 84%   Direction: 150°SSE
Pressure: 30.37"   Gusts: NA
Location:  40.8054°N, 83.1316°W
Report Text: KMNN 281553Z AUTO 15006KT 2SM BR CLR M12/M14 A3037 RMK AO2 SLP307 T11221144 TSNO
Loading
Personal Weather Stations






























Interactive Weather Map New forecast layout! Learn more

10-Day Weather Forecast

Advertisements
Track Severe Weather on mobile